createdAt,value
2018-06-03T00:00:34.791Z,17.92
2018-06-03T00:01:34.850Z,17.85
2018-06-03T00:03:27.849Z,17.79
2018-06-03T00:04:27.910Z,17.87
2018-06-03T00:06:20.899Z,17.78
2018-06-03T00:07:20.967Z,17.87
2018-06-03T00:09:13.968Z,17.94
2018-06-03T00:10:14.024Z,17.90
2018-06-03T00:12:07.013Z,17.89
2018-06-03T00:13:07.079Z,17.85
2018-06-03T00:15:00.076Z,17.92
2018-06-03T00:16:00.135Z,17.87
2018-06-03T00:17:53.133Z,17.94
2018-06-03T00:18:53.198Z,17.95
2018-06-03T00:20:46.199Z,18.00
2018-06-03T00:21:46.253Z,17.98
2018-06-03T00:23:39.252Z,18.07
2018-06-03T00:24:39.312Z,18.08
2018-06-03T00:26:32.304Z,18.05
2018-06-03T00:27:32.368Z,18.07
2018-06-03T00:29:25.385Z,18.20
2018-06-03T00:30:25.424Z,18.26
2018-06-03T00:32:18.925Z,18.26
2018-06-03T00:33:18.988Z,18.33
2018-06-03T00:35:11.996Z,18.33
2018-06-03T00:36:12.054Z,18.28
2018-06-03T00:38:05.045Z,18.41
2018-06-03T00:39:05.109Z,18.31
2018-06-03T00:40:58.107Z,18.25
2018-06-03T00:41:58.164Z,18.31
2018-06-03T00:43:51.166Z,18.33
2018-06-03T00:44:51.221Z,18.35
2018-06-03T00:46:44.217Z,18.37
2018-06-03T00:47:44.278Z,18.26
2018-06-03T00:49:37.278Z,18.19
2018-06-03T00:50:37.335Z,18.23
2018-06-03T00:52:30.327Z,18.16
2018-06-03T00:53:30.391Z,18.19
2018-06-03T00:55:23.396Z,18.22
2018-06-03T00:56:23.452Z,18.29
2018-06-03T00:58:16.446Z,18.29
2018-06-03T00:59:16.508Z,18.25
2018-06-03T01:01:09.509Z,18.34
2018-06-03T01:02:09.563Z,18.34
2018-06-03T01:04:02.566Z,18.35
2018-06-03T01:05:02.621Z,18.35
2018-06-03T01:06:55.615Z,18.33
2018-06-03T01:07:55.678Z,18.33
2018-06-03T01:09:48.683Z,18.25
2018-06-03T01:10:48.735Z,18.29
2018-06-03T01:12:41.727Z,18.28
2018-06-03T01:13:41.791Z,18.33
2018-06-03T01:15:34.792Z,18.31
2018-06-03T01:16:34.850Z,18.23
2018-06-03T01:18:28.352Z,18.19
2018-06-03T01:19:28.412Z,18.26
2018-06-03T01:21:21.411Z,18.22
2018-06-03T01:22:21.472Z,18.08
2018-06-03T01:24:14.469Z,18.16
2018-06-03T01:25:14.525Z,18.16
2018-06-03T01:27:07.522Z,18.22
2018-06-03T01:28:07.585Z,18.18
2018-06-03T01:30:00.591Z,18.23
2018-06-03T01:31:00.648Z,18.20
2018-06-03T01:32:53.641Z,18.29
2018-06-03T01:33:53.706Z,18.26
2018-06-03T01:35:46.707Z,18.19
2018-06-03T01:36:46.762Z,18.20
2018-06-03T01:38:39.761Z,18.16
2018-06-03T01:39:39.824Z,18.16
2018-06-03T01:41:32.822Z,18.08
2018-06-03T01:42:32.884Z,18.11
2018-06-03T01:44:25.878Z,18.19
2018-06-03T01:45:25.937Z,18.16
2018-06-03T01:47:18.931Z,18.18
2018-06-03T01:48:18.993Z,18.15
2018-06-03T01:50:11.991Z,18.23
2018-06-03T01:51:12.049Z,18.20
2018-06-03T01:53:05.041Z,18.19
2018-06-03T01:54:05.110Z,18.16
2018-06-03T01:55:58.104Z,18.18
2018-06-03T01:56:58.162Z,18.18
2018-06-03T01:58:51.154Z,18.07
2018-06-03T01:59:51.215Z,18.08
2018-06-03T02:01:44.734Z,18.10
2018-06-03T02:02:44.791Z,18.16
2018-06-03T02:04:37.791Z,18.13
2018-06-03T02:05:37.847Z,18.03
2018-06-03T02:07:30.840Z,18.05
2018-06-03T02:08:30.908Z,18.08
2018-06-03T02:10:23.911Z,18.19
2018-06-03T02:11:23.962Z,18.08
2018-06-03T02:13:16.959Z,18.20
2018-06-03T02:14:17.021Z,18.28
2018-06-03T02:16:10.025Z,18.18
2018-06-03T02:17:10.082Z,18.15
2018-06-03T02:19:03.073Z,18.15
2018-06-03T02:20:03.139Z,18.15
2018-06-03T02:21:56.136Z,18.16
2018-06-03T02:22:56.194Z,18.13
2018-06-03T02:24:49.704Z,18.18
2018-06-03T02:25:49.766Z,18.22
2018-06-03T02:27:42.751Z,18.23
2018-06-03T02:28:42.812Z,18.16
2018-06-03T02:30:35.818Z,18.31
2018-06-03T02:31:35.870Z,18.22
2018-06-03T02:33:28.873Z,18.33
2018-06-03T02:34:28.940Z,18.29
2018-06-03T02:36:21.938Z,18.28
2018-06-03T02:37:21.990Z,18.25
2018-06-03T02:39:14.981Z,18.28
2018-06-03T02:40:15.047Z,18.37
2018-06-03T02:42:08.055Z,18.33
2018-06-03T02:43:08.112Z,18.38
2018-06-03T02:45:01.113Z,18.28
2018-06-03T02:46:01.165Z,18.31
2018-06-03T02:47:54.158Z,18.34
2018-06-03T02:48:54.237Z,18.37
2018-06-03T02:50:47.221Z,18.35
2018-06-03T02:51:47.277Z,18.38
2018-06-03T02:53:40.273Z,18.37
2018-06-03T02:54:40.334Z,18.44
2018-06-03T02:56:33.334Z,18.33
2018-06-03T02:57:33.389Z,18.41
2018-06-03T02:59:26.382Z,18.43
2018-06-03T03:00:26.447Z,18.43
2018-06-03T03:02:19.451Z,18.40
2018-06-03T03:03:19.509Z,18.25
2018-06-03T03:05:12.510Z,18.41
2018-06-03T03:06:12.567Z,18.34
2018-06-03T03:08:05.558Z,18.34
2018-06-03T03:09:05.620Z,18.35
2018-06-03T03:10:58.621Z,18.40
2018-06-03T03:11:58.679Z,18.33
2018-06-03T03:13:52.183Z,18.29
2018-06-03T03:14:52.251Z,18.41
2018-06-03T03:16:45.242Z,18.34
2018-06-03T03:17:45.298Z,18.40
2018-06-03T03:19:38.292Z,18.31
2018-06-03T03:20:38.355Z,18.40
2018-06-03T03:22:31.360Z,18.31
2018-06-03T03:23:31.412Z,18.37
2018-06-03T03:25:24.416Z,18.29
2018-06-03T03:26:24.475Z,18.34
2018-06-03T03:28:17.466Z,18.35
2018-06-03T03:29:17.532Z,18.34
2018-06-03T03:31:10.531Z,18.37
2018-06-03T03:32:10.589Z,18.35
2018-06-03T03:34:03.587Z,18.34
2018-06-03T03:35:03.651Z,18.45
2018-06-03T03:36:56.689Z,18.37
2018-06-03T03:37:56.706Z,18.43
2018-06-03T03:39:49.700Z,18.37
2018-06-03T03:40:49.763Z,18.41
2018-06-03T03:42:42.764Z,18.40
2018-06-03T03:43:42.818Z,18.43
2018-06-03T03:45:35.821Z,18.45
2018-06-03T03:46:35.881Z,18.56
2018-06-03T03:48:29.377Z,18.49
2018-06-03T03:49:29.437Z,18.43
2018-06-03T03:51:22.436Z,18.45
2018-06-03T03:52:22.495Z,18.44
2018-06-03T03:54:15.489Z,18.37
2018-06-03T03:55:15.552Z,18.45
2018-06-03T03:57:08.558Z,18.43
2018-06-03T03:58:08.618Z,18.55
2018-06-03T04:00:01.608Z,18.45
2018-06-03T04:01:01.674Z,18.47
2018-06-03T04:02:54.718Z,18.50
2018-06-03T04:03:54.731Z,18.53
2018-06-03T04:05:47.734Z,18.52
2018-06-03T04:06:47.788Z,18.49
2018-06-03T04:08:40.786Z,18.53
2018-06-03T04:09:40.845Z,18.56
2018-06-03T04:11:33.843Z,18.62
2018-06-03T04:12:33.903Z,18.62
2018-06-03T04:14:26.893Z,18.62
2018-06-03T04:15:26.960Z,18.68
2018-06-03T04:17:19.958Z,18.63
2018-06-03T04:18:20.016Z,18.66
2018-06-03T04:20:13.008Z,18.62
2018-06-03T04:21:13.075Z,18.63
2018-06-03T04:23:06.074Z,18.73
2018-06-03T04:24:06.131Z,18.68
2018-06-03T04:25:59.135Z,18.78
2018-06-03T04:26:59.189Z,18.81
2018-06-03T04:28:52.192Z,18.75
2018-06-03T04:29:52.246Z,18.81
2018-06-03T04:31:45.252Z,18.84
2018-06-03T04:32:45.304Z,18.66
2018-06-03T04:34:38.295Z,18.88
2018-06-03T04:35:38.359Z,18.83
2018-06-03T04:37:31.360Z,18.86
2018-06-03T04:38:31.417Z,18.93
2018-06-03T04:40:24.409Z,18.88
2018-06-03T04:41:24.538Z,18.84
2018-06-03T04:43:17.476Z,18.93
2018-06-03T04:44:17.533Z,18.96
2018-06-03T04:46:11.032Z,18.99
2018-06-03T04:47:11.136Z,18.99
2018-06-03T04:49:04.099Z,19.09
2018-06-03T04:50:04.156Z,19.08
2018-06-03T04:51:57.179Z,19.12
2018-06-03T04:52:57.220Z,19.14
2018-06-03T04:54:50.213Z,19.24
2018-06-03T04:55:50.274Z,19.27
2018-06-03T04:57:43.275Z,19.22
2018-06-03T04:58:43.335Z,19.26
2018-06-03T05:00:36.833Z,19.22
2018-06-03T05:01:36.898Z,19.24
2018-06-03T05:03:29.901Z,19.39
2018-06-03T05:04:29.959Z,19.36
2018-06-03T05:06:22.948Z,19.31
2018-06-03T05:07:23.014Z,19.33
2018-06-03T05:09:16.019Z,19.31
2018-06-03T05:10:16.072Z,19.33
2018-06-03T05:12:09.062Z,19.34
2018-06-03T05:13:09.129Z,19.33
2018-06-03T05:15:02.129Z,19.41
2018-06-03T05:16:02.184Z,19.41
2018-06-03T05:17:55.186Z,19.54
2018-06-03T05:18:55.244Z,19.56
2018-06-03T05:20:48.233Z,19.56
2018-06-03T05:21:48.300Z,19.58
2018-06-03T05:23:41.300Z,19.73
2018-06-03T05:24:41.358Z,19.69
2018-06-03T05:26:34.350Z,19.71
2018-06-03T05:27:34.414Z,19.73
2018-06-03T05:29:27.417Z,19.76
2018-06-03T05:30:27.477Z,19.82
2018-06-03T05:32:20.468Z,19.88
2018-06-03T05:33:20.531Z,19.95
2018-06-03T05:35:13.532Z,19.91
2018-06-03T05:36:13.591Z,19.96
2018-06-03T05:38:07.100Z,20.07
2018-06-03T05:39:07.156Z,20.09
2018-06-03T05:41:00.148Z,20.06
2018-06-03T05:42:00.213Z,20.03
2018-06-03T05:43:53.214Z,20.07
2018-06-03T05:44:53.277Z,20.28
2018-06-03T05:46:46.264Z,20.44
2018-06-03T05:47:46.334Z,20.58
2018-06-03T05:49:39.337Z,20.70
2018-06-03T05:50:39.477Z,20.92
2018-06-03T05:52:32.398Z,21.14
2018-06-03T05:53:32.453Z,21.30
2018-06-03T05:55:25.488Z,21.42
2018-06-03T05:56:25.521Z,21.39
2018-06-03T05:58:18.522Z,21.37
2018-06-03T05:59:18.582Z,21.30
2018-06-03T06:01:11.577Z,21.17
2018-06-03T06:02:11.643Z,21.15
2018-06-03T06:04:04.645Z,21.17
2018-06-03T06:05:04.704Z,21.17
2018-06-03T06:06:57.701Z,21.21
2018-06-03T06:07:57.771Z,21.39
2018-06-03T06:09:50.768Z,21.37
2018-06-03T06:10:50.825Z,21.54
2018-06-03T06:12:43.825Z,21.66
2018-06-03T06:13:43.892Z,21.76
2018-06-03T06:15:36.892Z,21.76
2018-06-03T06:16:36.952Z,21.77
2018-06-03T06:18:30.465Z,21.76
2018-06-03T06:19:30.523Z,21.64
2018-06-03T06:21:23.532Z,21.66
2018-06-03T06:22:23.591Z,21.60
2018-06-03T06:24:16.602Z,21.43
2018-06-03T06:25:16.666Z,21.35
2018-06-03T06:27:09.657Z,21.20
2018-06-03T06:28:09.725Z,21.22
2018-06-03T06:30:02.726Z,21.33
2018-06-03T06:31:02.787Z,21.30
2018-06-03T06:32:55.789Z,21.50
2018-06-03T06:33:55.851Z,21.45
2018-06-03T06:35:48.845Z,21.42
2018-06-03T06:36:48.913Z,21.30
2018-06-03T06:38:41.916Z,21.32
2018-06-03T06:39:41.975Z,21.21
2018-06-03T06:41:35.010Z,21.40
2018-06-03T06:42:35.038Z,21.35
2018-06-03T06:44:28.040Z,21.29
2018-06-03T06:45:28.101Z,21.20
2018-06-03T06:47:21.105Z,21.17
2018-06-03T06:48:21.165Z,21.32
2018-06-03T06:50:14.161Z,21.33
2018-06-03T06:51:14.228Z,21.43
2018-06-03T06:53:07.231Z,21.69
2018-06-03T06:54:07.292Z,21.72
2018-06-03T06:56:00.287Z,21.80
2018-06-03T06:57:00.352Z,21.88
2018-06-03T06:58:53.359Z,21.76
2018-06-03T06:59:53.419Z,21.88
2018-06-03T07:01:46.415Z,21.98
2018-06-03T07:02:46.482Z,22.18
2018-06-03T07:04:39.483Z,23.73
2018-06-03T07:05:39.546Z,24.35
2018-06-03T07:07:32.546Z,26.06
2018-06-03T07:08:32.610Z,27.48
2018-06-03T07:10:25.614Z,28.48
2018-06-03T07:11:25.681Z,29.82
2018-06-03T07:13:18.693Z,31.40
2018-06-03T07:14:18.758Z,32.15
2018-06-03T07:16:11.775Z,31.89
2018-06-03T07:17:11.841Z,31.85
2018-06-03T07:19:05.364Z,30.83
2018-06-03T07:20:05.427Z,30.05
2018-06-03T07:21:58.446Z,28.72
2018-06-03T07:22:58.511Z,28.20
2018-06-03T07:24:51.518Z,27.39
2018-06-03T07:25:51.590Z,27.15
2018-06-03T07:27:44.601Z,26.75
2018-06-03T07:28:44.666Z,26.25
2018-06-03T07:30:37.672Z,25.95
2018-06-03T07:31:37.743Z,25.44
2018-06-03T07:33:30.752Z,24.80
2018-06-03T07:34:30.819Z,24.60
2018-06-03T07:36:23.828Z,24.39
2018-06-03T07:37:23.893Z,24.26
2018-06-03T07:39:16.903Z,24.03
2018-06-03T07:40:16.992Z,23.65
2018-06-03T07:42:09.969Z,23.17
2018-06-03T07:43:10.041Z,23.02
2018-06-03T07:45:03.051Z,22.53
2018-06-03T07:46:03.118Z,22.45
2018-06-03T07:47:56.124Z,22.45
2018-06-03T07:48:56.188Z,22.53
2018-06-03T07:50:49.207Z,22.44
2018-06-03T07:51:49.263Z,22.44
2018-06-03T07:53:42.266Z,22.39
2018-06-03T07:54:42.348Z,22.30
2018-06-03T07:56:35.333Z,22.23
2018-06-03T07:57:35.437Z,22.28
2018-06-03T07:59:28.413Z,22.18
2018-06-03T08:00:28.478Z,22.41
2018-06-03T08:02:21.481Z,22.43
2018-06-03T08:03:21.551Z,22.51
2018-06-03T08:05:14.559Z,22.72
2018-06-03T08:06:14.622Z,22.69
2018-06-03T08:08:07.635Z,22.94
2018-06-03T08:09:07.697Z,22.87
2018-06-03T08:11:00.700Z,22.76
2018-06-03T08:12:00.762Z,22.81
2018-06-03T08:13:53.773Z,22.83
2018-06-03T08:14:53.838Z,22.99
2018-06-03T08:16:46.835Z,23.03
2018-06-03T08:17:46.911Z,22.94
2018-06-03T08:19:39.900Z,22.96
2018-06-03T08:20:39.968Z,22.90
2018-06-03T08:22:32.974Z,22.83
2018-06-03T08:23:33.036Z,22.68
2018-06-03T08:25:26.039Z,22.53
2018-06-03T08:26:26.101Z,22.47
2018-06-03T08:28:19.106Z,22.41
2018-06-03T08:29:19.164Z,22.35
2018-06-03T08:31:12.166Z,22.69
2018-06-03T08:32:12.237Z,22.66
2018-06-03T08:34:05.239Z,22.83
2018-06-03T08:35:05.308Z,23.03
2018-06-03T08:36:58.299Z,23.51
2018-06-03T08:37:58.365Z,23.80
2018-06-03T08:39:51.377Z,23.98
2018-06-03T08:40:51.437Z,24.23
2018-06-03T08:42:44.488Z,25.31
2018-06-03T08:43:44.524Z,25.68
2018-06-03T08:45:37.528Z,26.90
2018-06-03T08:46:37.590Z,28.23
2018-06-03T08:48:30.614Z,27.85
2018-06-03T08:49:30.672Z,27.89
2018-06-03T08:51:23.680Z,29.27
2018-06-03T08:52:23.746Z,29.44
2018-06-03T08:54:16.760Z,29.94
2018-06-03T08:55:16.824Z,30.62
2018-06-03T08:57:09.836Z,31.96
2018-06-03T08:58:09.908Z,31.36
2018-06-03T09:00:02.928Z,29.24
2018-06-03T09:01:02.996Z,29.02
2018-06-03T09:02:56.006Z,28.39
2018-06-03T09:03:56.081Z,28.26
2018-06-03T09:05:49.099Z,28.11
2018-06-03T09:06:49.188Z,27.92
2018-06-03T09:08:42.222Z,27.86
2018-06-03T09:09:42.288Z,28.70
2018-06-03T09:11:35.320Z,28.22
2018-06-03T09:12:35.379Z,27.89
2018-06-03T09:14:29.913Z,28.00
2018-06-03T09:15:29.957Z,29.47
2018-06-03T09:17:22.976Z,29.44
2018-06-03T09:18:23.055Z,29.36
2018-06-03T09:20:16.076Z,29.01
2018-06-03T09:21:16.141Z,28.62
2018-06-03T09:23:09.162Z,28.22
2018-06-03T09:24:09.244Z,28.01
2018-06-03T09:26:02.268Z,27.89
2018-06-03T09:27:02.329Z,28.02
2018-06-03T09:28:55.355Z,28.52
2018-06-03T09:29:55.420Z,28.48
2018-06-03T09:31:48.428Z,29.02
2018-06-03T09:32:48.496Z,29.13
2018-06-03T09:34:41.561Z,28.98
2018-06-03T09:35:41.580Z,29.29
2018-06-03T09:37:34.732Z,29.16
2018-06-03T09:38:34.689Z,29.32
2018-06-03T09:40:27.718Z,29.14
2018-06-03T09:41:27.760Z,29.04
2018-06-03T09:43:20.765Z,28.75
2018-06-03T09:44:20.886Z,28.74
2018-06-03T09:46:13.859Z,28.48
2018-06-03T09:47:13.924Z,28.33
2018-06-03T09:49:06.945Z,28.04
2018-06-03T09:50:07.013Z,27.87
2018-06-03T09:52:00.028Z,28.00
2018-06-03T09:53:00.106Z,28.14
2018-06-03T09:54:53.118Z,28.25
2018-06-03T09:55:53.185Z,28.19
2018-06-03T09:57:46.225Z,28.17
2018-06-03T09:58:46.266Z,28.32
2018-06-03T10:00:39.282Z,28.39
2018-06-03T10:01:39.347Z,28.54
2018-06-03T10:03:32.356Z,28.29
2018-06-03T10:04:32.426Z,28.35
2018-06-03T10:06:25.446Z,28.33
2018-06-03T10:07:25.513Z,28.25
2018-06-03T10:09:18.525Z,28.04
2018-06-03T10:10:18.673Z,28.29
2018-06-03T10:12:11.601Z,28.26
2018-06-03T10:13:11.671Z,28.27
2018-06-03T10:15:04.687Z,28.25
2018-06-03T10:16:04.762Z,28.20
2018-06-03T10:17:58.272Z,28.35
2018-06-03T10:18:58.341Z,28.76
2018-06-03T10:20:51.357Z,28.81
2018-06-03T10:21:51.424Z,28.63
2018-06-03T10:23:44.435Z,28.11
2018-06-03T10:24:44.507Z,28.11
2018-06-03T10:26:37.529Z,28.02
2018-06-03T10:27:37.588Z,27.82
2018-06-03T10:29:30.600Z,28.01
2018-06-03T10:30:30.667Z,28.02
2018-06-03T10:32:23.677Z,28.07
2018-06-03T10:33:23.747Z,28.04
2018-06-03T10:35:16.759Z,27.45
2018-06-03T10:36:16.825Z,27.00
2018-06-03T10:38:09.832Z,26.71
2018-06-03T10:39:09.904Z,26.43
2018-06-03T10:41:02.936Z,26.22
2018-06-03T10:42:02.986Z,26.18
2018-06-03T10:43:55.991Z,26.26
2018-06-03T10:44:56.063Z,26.19
2018-06-03T10:46:49.072Z,26.03
2018-06-03T10:47:49.136Z,26.26
2018-06-03T10:49:42.151Z,26.34
2018-06-03T10:50:42.214Z,26.43
2018-06-03T10:52:35.226Z,26.62
2018-06-03T10:53:35.300Z,26.62
2018-06-03T10:55:28.312Z,26.48
2018-06-03T10:56:28.379Z,26.34
2018-06-03T10:58:21.383Z,26.16
2018-06-03T10:59:21.452Z,26.22
2018-06-03T11:01:14.464Z,26.09
2018-06-03T11:02:14.533Z,26.19
2018-06-03T11:04:07.536Z,26.21
2018-06-03T11:05:07.606Z,26.25
2018-06-03T11:07:00.623Z,26.19
2018-06-03T11:08:00.793Z,26.19
2018-06-03T11:09:53.705Z,26.21
2018-06-03T11:10:53.768Z,26.40
2018-06-03T11:12:46.776Z,26.43
2018-06-03T11:13:46.841Z,26.37
2018-06-03T11:15:39.852Z,26.43
2018-06-03T11:16:39.965Z,26.37
2018-06-03T11:18:32.915Z,26.26
2018-06-03T11:19:32.984Z,26.34
2018-06-03T11:21:25.992Z,26.62
2018-06-03T11:22:26.056Z,26.71
2018-06-03T11:24:19.059Z,26.75
2018-06-03T11:25:19.129Z,26.75
2018-06-03T11:27:12.143Z,26.55
2018-06-03T11:28:12.205Z,26.48
2018-06-03T11:30:05.212Z,26.33
2018-06-03T11:31:05.280Z,26.36
2018-06-03T11:32:58.284Z,26.41
2018-06-03T11:33:58.351Z,26.43
2018-06-03T11:35:51.360Z,26.23
2018-06-03T11:36:51.427Z,26.23
2018-06-03T11:38:44.433Z,26.23
2018-06-03T11:39:44.496Z,26.47
2018-06-03T11:41:37.509Z,26.41
2018-06-03T11:42:37.570Z,26.60
2018-06-03T11:44:30.573Z,26.73
2018-06-03T11:45:30.645Z,26.88
2018-06-03T11:47:23.658Z,26.68
2018-06-03T11:48:23.725Z,26.73
2018-06-03T11:50:16.729Z,26.51
2018-06-03T11:51:16.790Z,26.53
2018-06-03T11:53:09.821Z,26.83
2018-06-03T11:54:09.862Z,26.92
2018-06-03T11:56:02.871Z,26.88
2018-06-03T11:57:02.943Z,26.68
2018-06-03T11:58:55.942Z,26.52
2018-06-03T11:59:56.014Z,26.65
2018-06-03T12:01:49.025Z,26.83
2018-06-03T12:02:49.087Z,26.85
2018-06-03T12:04:42.097Z,26.93
2018-06-03T12:05:42.166Z,26.78
2018-06-03T12:07:35.174Z,26.62
2018-06-03T12:08:35.239Z,26.74
2018-06-03T12:10:28.248Z,26.77
2018-06-03T12:11:28.315Z,26.48
2018-06-03T12:13:21.319Z,26.25
2018-06-03T12:14:21.389Z,26.48
2018-06-03T12:16:14.396Z,26.52
2018-06-03T12:17:14.461Z,26.59
2018-06-03T12:19:07.460Z,26.56
2018-06-03T12:20:07.530Z,26.62
2018-06-03T12:22:00.547Z,26.48
2018-06-03T12:23:00.612Z,26.44
2018-06-03T12:24:53.615Z,26.43
2018-06-03T12:25:53.683Z,26.47
2018-06-03T12:27:46.695Z,26.56
2018-06-03T12:28:46.753Z,26.77
2018-06-03T12:30:39.768Z,26.85
2018-06-03T12:31:39.831Z,27.00
2018-06-03T12:33:32.837Z,27.03
2018-06-03T12:34:32.904Z,27.10
2018-06-03T12:36:25.914Z,26.90
2018-06-03T12:37:25.982Z,26.88
2018-06-03T12:39:18.981Z,26.56
2018-06-03T12:40:19.051Z,26.44
2018-06-03T12:42:12.059Z,26.25
2018-06-03T12:43:12.124Z,26.22
2018-06-03T12:45:05.125Z,26.33
2018-06-03T12:46:05.197Z,26.41
2018-06-03T12:47:58.205Z,26.68
2018-06-03T12:48:58.270Z,26.85
2018-06-03T12:50:51.315Z,26.81
2018-06-03T12:51:51.343Z,26.92
2018-06-03T12:53:44.342Z,27.15
2018-06-03T12:54:44.413Z,27.32
2018-06-03T12:56:37.422Z,27.37
2018-06-03T12:57:37.488Z,27.47
2018-06-03T12:59:30.502Z,27.35
2018-06-03T13:00:30.560Z,27.27
2018-06-03T13:02:23.571Z,26.95
2018-06-03T13:03:23.635Z,26.84
2018-06-03T13:05:16.643Z,26.89
2018-06-03T13:06:16.708Z,26.80
2018-06-03T13:08:09.715Z,26.81
2018-06-03T13:09:09.785Z,26.78
2018-06-03T13:11:02.793Z,26.60
2018-06-03T13:12:02.877Z,26.58
2018-06-03T13:13:55.863Z,26.65
2018-06-03T13:14:55.936Z,26.62
2018-06-03T13:16:48.944Z,26.48
2018-06-03T13:17:49.009Z,26.36
2018-06-03T13:19:42.010Z,26.44
2018-06-03T13:20:42.079Z,26.52
2018-06-03T13:22:35.089Z,26.38
2018-06-03T13:23:35.149Z,26.36
2018-06-03T13:25:28.157Z,26.31
2018-06-03T13:26:28.227Z,26.29
2018-06-03T13:28:21.239Z,26.21
2018-06-03T13:29:21.300Z,26.19
2018-06-03T13:31:14.314Z,26.28
2018-06-03T13:32:14.387Z,26.25
2018-06-03T13:34:07.493Z,26.43
2018-06-03T13:35:07.457Z,26.41
2018-06-03T13:37:00.463Z,26.33
2018-06-03T13:38:00.527Z,26.23
2018-06-03T13:39:53.530Z,26.25
2018-06-03T13:40:53.598Z,26.18
2018-06-03T13:42:46.660Z,26.21
2018-06-03T13:43:46.671Z,26.15
2018-06-03T13:45:39.676Z,26.05
2018-06-03T13:46:39.745Z,26.05
2018-06-03T13:48:32.762Z,26.18
2018-06-03T13:49:32.829Z,26.18
2018-06-03T13:51:25.837Z,26.26
2018-06-03T13:52:25.903Z,26.21
2018-06-03T13:54:18.907Z,26.25
2018-06-03T13:55:18.975Z,26.21
2018-06-03T13:57:11.984Z,26.16
2018-06-03T13:58:12.048Z,26.26
2018-06-03T14:00:05.056Z,26.22
2018-06-03T14:01:05.137Z,26.23
2018-06-03T14:02:58.135Z,26.36
2018-06-03T14:03:58.199Z,26.36
2018-06-03T14:05:51.200Z,26.26
2018-06-03T14:06:51.269Z,26.38
2018-06-03T14:08:44.277Z,26.40
2018-06-03T14:09:44.342Z,26.56
2018-06-03T14:11:37.350Z,26.56
2018-06-03T14:12:37.414Z,26.66
2018-06-03T14:14:30.415Z,26.80
2018-06-03T14:15:30.487Z,26.83
2018-06-03T14:17:23.495Z,26.85
2018-06-03T14:18:23.562Z,26.95
2018-06-03T14:20:16.568Z,26.96
2018-06-03T14:21:16.640Z,26.95
2018-06-03T14:23:09.647Z,26.84
2018-06-03T14:24:09.713Z,26.88
2018-06-03T14:26:02.717Z,26.81
2018-06-03T14:27:02.788Z,26.70
2018-06-03T14:28:55.798Z,26.75
2018-06-03T14:29:55.862Z,26.74
2018-06-03T14:31:48.880Z,26.75
2018-06-03T14:32:48.936Z,26.71
2018-06-03T14:34:41.944Z,26.43
2018-06-03T14:35:42.013Z,26.44
2018-06-03T14:37:35.053Z,26.47
2018-06-03T14:38:35.089Z,26.56
2018-06-03T14:40:28.091Z,26.59
2018-06-03T14:41:28.157Z,26.55
2018-06-03T14:43:21.174Z,26.58
2018-06-03T14:44:21.242Z,26.56
2018-06-03T14:46:14.245Z,26.73
2018-06-03T14:47:14.309Z,26.60
2018-06-03T14:49:07.317Z,26.58
2018-06-03T14:50:07.386Z,26.62
2018-06-03T14:52:00.389Z,26.59
2018-06-03T14:53:00.454Z,26.59
2018-06-03T14:54:53.459Z,26.68
2018-06-03T14:55:53.528Z,26.80
2018-06-03T14:57:46.540Z,26.73
2018-06-03T14:58:46.553Z,26.60
2018-06-03T15:00:39.567Z,26.44
2018-06-03T15:01:39.631Z,26.33
2018-06-03T15:03:32.642Z,26.22
2018-06-03T15:04:32.705Z,26.10
2018-06-03T15:06:25.713Z,25.98
2018-06-03T15:07:25.777Z,25.96
2018-06-03T15:09:18.787Z,25.75
2018-06-03T15:10:18.847Z,25.77
2018-06-03T15:12:11.861Z,25.78
2018-06-03T15:13:11.926Z,25.73
2018-06-03T15:15:04.925Z,25.73
2018-06-03T15:16:04.996Z,25.75
2018-06-03T15:17:58.516Z,25.70
2018-06-03T15:18:58.582Z,25.70
2018-06-03T15:20:51.596Z,25.77
2018-06-03T15:21:51.667Z,25.69
2018-06-03T15:23:45.194Z,25.63
2018-06-03T15:24:45.259Z,25.65
2018-06-03T15:26:38.265Z,25.51
2018-06-03T15:27:38.338Z,25.38
2018-06-03T15:29:31.346Z,25.38
2018-06-03T15:30:31.432Z,25.41
2018-06-03T15:32:24.425Z,25.41
2018-06-03T15:33:24.487Z,25.35
2018-06-03T15:35:17.490Z,25.32
2018-06-03T15:36:17.560Z,25.40
2018-06-03T15:38:10.574Z,25.41
2018-06-03T15:39:10.637Z,25.41
2018-06-03T15:41:03.641Z,25.43
2018-06-03T15:42:03.712Z,25.33
2018-06-03T15:43:56.722Z,25.28
2018-06-03T15:44:56.786Z,25.33
2018-06-03T15:46:49.785Z,25.26
2018-06-03T15:47:49.853Z,25.29
2018-06-03T15:49:42.863Z,25.32
2018-06-03T15:50:42.931Z,25.35
2018-06-03T15:52:35.935Z,25.29
2018-06-03T15:53:36.000Z,25.14
2018-06-03T15:55:29.007Z,25.04
2018-06-03T15:56:29.071Z,25.04
2018-06-03T15:58:22.081Z,25.07
2018-06-03T15:59:22.143Z,25.06
2018-06-03T16:01:15.143Z,25.01
2018-06-03T16:02:15.212Z,24.96
2018-06-03T16:04:08.225Z,25.06
2018-06-03T16:05:08.291Z,25.10
2018-06-03T16:07:01.294Z,25.07
2018-06-03T16:08:01.401Z,25.06
2018-06-03T16:09:54.373Z,25.01
2018-06-03T16:10:54.436Z,24.96
2018-06-03T16:12:47.442Z,24.91
2018-06-03T16:13:47.508Z,24.93
2018-06-03T16:15:40.505Z,24.88
2018-06-03T16:16:40.579Z,24.98
2018-06-03T16:18:33.582Z,24.93
2018-06-03T16:19:33.649Z,24.93
2018-06-03T16:21:26.656Z,24.98
2018-06-03T16:22:26.718Z,24.99
2018-06-03T16:24:19.734Z,25.04
2018-06-03T16:25:19.788Z,25.11
2018-06-03T16:27:12.789Z,25.03
2018-06-03T16:28:12.866Z,24.92
2018-06-03T16:30:05.856Z,24.85
2018-06-03T16:31:05.916Z,24.80
2018-06-03T16:32:58.919Z,24.80
2018-06-03T16:33:58.982Z,24.77
2018-06-03T16:35:51.978Z,24.66
2018-06-03T16:36:52.054Z,24.73
2018-06-03T16:38:45.049Z,24.80
2018-06-03T16:39:45.111Z,24.70
2018-06-03T16:41:38.116Z,24.74
2018-06-03T16:42:38.180Z,24.77
2018-06-03T16:44:31.189Z,24.70
2018-06-03T16:45:31.257Z,24.65
2018-06-03T16:47:24.277Z,24.69
2018-06-03T16:48:24.318Z,24.68
2018-06-03T16:50:17.332Z,24.70
2018-06-03T16:51:17.398Z,24.65
2018-06-03T16:53:10.401Z,24.66
2018-06-03T16:54:10.460Z,24.65
2018-06-03T16:56:03.462Z,24.60
2018-06-03T16:57:03.533Z,24.73
2018-06-03T16:58:56.535Z,24.70
2018-06-03T16:59:56.597Z,24.70
2018-06-03T17:01:49.616Z,24.63
2018-06-03T17:02:49.658Z,24.73
2018-06-03T17:04:42.677Z,24.73
2018-06-03T17:05:42.748Z,24.63
2018-06-03T17:07:35.745Z,24.68
2018-06-03T17:08:35.810Z,24.63
2018-06-03T17:10:28.817Z,24.63
2018-06-03T17:11:30.006Z,24.65
2018-06-03T17:13:21.945Z,24.60
2018-06-03T17:14:21.947Z,24.70
2018-06-03T17:16:14.945Z,24.69
2018-06-03T17:17:15.014Z,24.61
2018-06-03T17:19:08.069Z,24.60
2018-06-03T17:20:08.078Z,24.69
2018-06-03T17:22:01.094Z,24.69
2018-06-03T17:23:01.159Z,24.57
2018-06-03T17:24:54.164Z,24.54
2018-06-03T17:25:54.226Z,24.65
2018-06-03T17:27:47.235Z,24.68
2018-06-03T17:28:47.301Z,24.51
2018-06-03T17:30:40.307Z,24.57
2018-06-03T17:31:40.367Z,24.43
2018-06-03T17:33:33.372Z,24.47
2018-06-03T17:34:33.435Z,24.48
2018-06-03T17:36:26.435Z,24.55
2018-06-03T17:37:26.506Z,24.54
2018-06-03T17:39:19.506Z,24.36
2018-06-03T17:40:19.573Z,24.36
2018-06-03T17:42:12.572Z,24.35
2018-06-03T17:43:12.641Z,24.38
2018-06-03T17:45:05.648Z,24.38
2018-06-03T17:46:05.709Z,24.36
2018-06-03T17:47:58.714Z,24.32
2018-06-03T17:48:58.783Z,24.36
2018-06-03T17:50:51.785Z,24.33
2018-06-03T17:51:51.849Z,24.32
2018-06-03T17:53:44.856Z,24.21
2018-06-03T17:54:44.919Z,24.20
2018-06-03T17:56:37.934Z,24.16
2018-06-03T17:57:37.994Z,24.10
2018-06-03T17:59:31.516Z,24.10
2018-06-03T18:00:31.567Z,24.14
2018-06-03T18:02:24.575Z,24.11
2018-06-03T18:03:24.641Z,24.02
2018-06-03T18:05:17.644Z,23.98
2018-06-03T18:06:17.707Z,23.96
2018-06-03T18:08:10.711Z,23.92
2018-06-03T18:09:10.777Z,23.98
2018-06-03T18:11:03.783Z,23.98
2018-06-03T18:12:03.840Z,23.95
2018-06-03T18:13:56.848Z,23.86
2018-06-03T18:14:56.912Z,23.84
2018-06-03T18:16:49.923Z,23.91
2018-06-03T18:17:49.977Z,23.87
2018-06-03T18:19:42.980Z,23.83
2018-06-03T18:20:43.042Z,23.77
2018-06-03T18:22:36.041Z,23.77
2018-06-03T18:23:36.108Z,23.69
2018-06-03T18:25:29.113Z,23.66
2018-06-03T18:26:29.178Z,23.66
2018-06-03T18:28:22.180Z,23.63
2018-06-03T18:29:22.250Z,23.55
2018-06-03T18:31:15.256Z,23.55
2018-06-03T18:32:15.318Z,23.59
2018-06-03T18:34:08.319Z,23.44